createdAt,value
2022-10-08T00:01:29.041Z,8.88
2022-10-08T00:03:57.645Z,8.86
2022-10-08T00:06:30.071Z,8.85
2022-10-08T00:09:02.451Z,8.83
2022-10-08T00:11:33.556Z,8.79
2022-10-08T00:14:04.655Z,8.72
2022-10-08T00:16:35.682Z,8.66
2022-10-08T00:19:06.993Z,8.59
2022-10-08T00:21:37.899Z,8.53
2022-10-08T00:24:07.614Z,8.47
2022-10-08T00:26:42.677Z,8.42
2022-10-08T00:29:14.672Z,8.38
2022-10-08T00:31:45.959Z,8.35
2022-10-08T00:34:23.452Z,8.33
2022-10-08T00:36:53.589Z,8.32
2022-10-08T00:39:24.113Z,8.32
2022-10-08T00:41:55.093Z,8.34
2022-10-08T00:44:51.697Z,8.34
2022-10-08T00:47:31.388Z,8.34
2022-10-08T00:50:09.658Z,8.36
2022-10-08T00:52:47.758Z,8.38
2022-10-08T00:55:19.838Z,8.43
2022-10-08T00:57:48.047Z,8.41
2022-10-08T01:00:20.125Z,8.38
2022-10-08T01:02:48.478Z,8.39
2022-10-08T01:05:20.018Z,8.39
2022-10-08T01:07:52.448Z,8.37
2022-10-08T01:10:43.975Z,8.31
2022-10-08T01:13:37.918Z,8.25
2022-10-08T01:16:28.482Z,8.20
2022-10-08T01:19:14.330Z,8.12
2022-10-08T01:21:47.656Z,8.04
2022-10-08T01:25:11.800Z,7.97
2022-10-08T01:27:46.734Z,7.94
2022-10-08T01:30:17.784Z,7.93
2022-10-08T01:33:03.104Z,7.91
2022-10-08T01:35:34.638Z,7.90
2022-10-08T01:38:07.186Z,7.90
2022-10-08T01:40:37.840Z,7.93
2022-10-08T01:43:10.537Z,7.91
2022-10-08T01:45:42.273Z,7.91
2022-10-08T01:48:22.126Z,7.93
2022-10-08T01:51:03.106Z,7.95
2022-10-08T01:53:37.746Z,7.97
2022-10-08T01:56:09.741Z,7.98
2022-10-08T01:59:06.479Z,7.97
2022-10-08T02:01:41.527Z,7.97
2022-10-08T02:04:28.335Z,7.95
2022-10-08T02:06:58.007Z,7.90
2022-10-08T02:09:27.934Z,7.84
2022-10-08T02:11:55.840Z,7.79
2022-10-08T02:14:26.707Z,7.73
2022-10-08T02:17:08.115Z,7.66
2022-10-08T02:20:14.228Z,7.61
2022-10-08T02:22:59.141Z,7.54
2022-10-08T02:25:55.133Z,7.50
2022-10-08T02:28:36.660Z,7.48
2022-10-08T02:31:18.087Z,7.46
2022-10-08T02:34:01.054Z,7.43
2022-10-08T02:36:34.420Z,7.43
2022-10-08T02:39:04.844Z,7.44
2022-10-08T02:41:50.059Z,7.42
2022-10-08T02:44:29.079Z,7.40
2022-10-08T02:47:00.942Z,7.41
2022-10-08T02:49:33.720Z,7.43
2022-10-08T02:52:03.165Z,7.45
2022-10-08T02:54:36.131Z,7.46
2022-10-08T02:57:18.918Z,7.45
2022-10-08T02:59:48.516Z,7.44
2022-10-08T03:02:26.314Z,7.40
2022-10-08T03:05:01.676Z,7.37
2022-10-08T03:07:31.844Z,7.33
2022-10-08T03:10:05.951Z,7.28
2022-10-08T03:12:34.621Z,7.22
2022-10-08T03:15:02.561Z,7.15
2022-10-08T03:17:40.402Z,7.09
2022-10-08T03:20:11.600Z,7.03
2022-10-08T03:22:40.604Z,6.99
2022-10-08T03:25:08.686Z,6.96
2022-10-08T03:27:36.486Z,6.94
2022-10-08T03:30:04.923Z,6.92
2022-10-08T03:32:32.753Z,6.92
2022-10-08T03:35:00.574Z,6.94
2022-10-08T03:37:28.296Z,6.95
2022-10-08T03:39:56.098Z,6.99
2022-10-08T03:42:23.891Z,6.99
2022-10-08T03:44:51.681Z,6.99
2022-10-08T03:47:19.531Z,7.01
2022-10-08T03:49:47.283Z,7.03
2022-10-08T03:52:15.105Z,7.04
2022-10-08T03:54:42.824Z,7.05
2022-10-08T03:57:10.466Z,7.07
2022-10-08T03:59:38.247Z,7.11
2022-10-08T04:02:06.006Z,7.10
2022-10-08T04:04:33.818Z,7.09
2022-10-08T04:07:01.576Z,7.05
2022-10-08T04:09:29.381Z,6.98
2022-10-08T04:11:57.113Z,6.89
2022-10-08T04:14:24.850Z,6.82
2022-10-08T04:16:55.483Z,6.73
2022-10-08T04:19:23.251Z,6.65
2022-10-08T04:21:51.016Z,6.57
2022-10-08T04:24:18.773Z,6.50
2022-10-08T04:26:46.688Z,6.44
2022-10-08T04:29:14.615Z,6.38
2022-10-08T04:31:42.438Z,6.34
2022-10-08T04:34:11.791Z,6.33
2022-10-08T04:36:39.729Z,6.31
2022-10-08T04:39:07.500Z,6.30
2022-10-08T04:41:35.302Z,6.31
2022-10-08T04:44:03.180Z,6.32
2022-10-08T04:46:31.309Z,6.35
2022-10-08T04:49:00.201Z,6.39
2022-10-08T04:51:28.617Z,6.45
2022-10-08T04:53:58.209Z,6.49
2022-10-08T04:56:29.059Z,6.53
2022-10-08T04:58:59.385Z,6.59
2022-10-08T05:01:29.285Z,6.65
2022-10-08T05:03:59.450Z,6.70
2022-10-08T05:06:31.545Z,6.81
2022-10-08T05:09:04.512Z,7.01
2022-10-08T05:11:33.028Z,7.47
2022-10-08T05:14:02.300Z,7.91
2022-10-08T05:16:30.511Z,8.30
2022-10-08T05:18:58.717Z,8.70
2022-10-08T05:21:29.529Z,9.07
2022-10-08T05:24:03.551Z,9.40
2022-10-08T05:26:57.443Z,9.71
2022-10-08T05:29:22.648Z,10.02
2022-10-08T05:31:50.595Z,10.30
2022-10-08T05:34:20.555Z,10.56
2022-10-08T05:36:48.448Z,10.70
2022-10-08T05:39:17.299Z,10.80
2022-10-08T05:41:46.003Z,10.77
2022-10-08T05:44:14.137Z,10.49
2022-10-08T05:46:42.264Z,10.27
2022-10-08T05:49:21.395Z,10.17
2022-10-08T05:51:50.279Z,10.18
2022-10-08T05:54:19.416Z,10.50
2022-10-08T05:56:47.681Z,10.99
2022-10-08T05:59:19.891Z,11.41
2022-10-08T06:01:47.896Z,11.79
2022-10-08T06:04:17.361Z,12.17
2022-10-08T06:06:45.529Z,12.49
2022-10-08T06:09:16.847Z,12.83
2022-10-08T06:11:44.792Z,13.05
2022-10-08T06:14:14.791Z,13.21
2022-10-08T06:16:43.511Z,13.31
2022-10-08T06:19:12.028Z,13.42
2022-10-08T06:21:43.211Z,13.56
2022-10-08T06:24:12.604Z,13.88
2022-10-08T06:26:42.562Z,14.13
2022-10-08T06:29:17.156Z,14.30
2022-10-08T06:31:46.812Z,14.44
2022-10-08T06:34:15.689Z,14.51
2022-10-08T06:36:44.265Z,14.60
2022-10-08T06:39:14.915Z,14.61
2022-10-08T06:41:43.038Z,14.63
2022-10-08T06:44:14.564Z,14.60
2022-10-08T06:46:43.111Z,14.66
2022-10-08T06:49:12.482Z,14.87
2022-10-08T06:51:42.885Z,15.06
2022-10-08T06:54:10.839Z,15.22
2022-10-08T06:56:39.460Z,15.16
2022-10-08T06:59:09.112Z,14.96
2022-10-08T07:01:37.848Z,14.97
2022-10-08T07:04:07.299Z,15.12
2022-10-08T07:06:39.394Z,15.26
2022-10-08T07:09:10.502Z,15.39
2022-10-08T07:11:39.148Z,15.33
2022-10-08T07:14:08.080Z,15.33
2022-10-08T07:16:36.721Z,15.55
2022-10-08T07:19:05.722Z,15.77
2022-10-08T07:21:34.378Z,15.87
2022-10-08T07:24:03.179Z,15.84
2022-10-08T07:26:36.204Z,15.69
2022-10-08T07:29:14.198Z,15.46
2022-10-08T07:31:43.075Z,15.27
2022-10-08T07:34:13.755Z,15.21
2022-10-08T07:36:42.668Z,15.06
2022-10-08T07:39:14.365Z,14.92
2022-10-08T07:41:43.138Z,14.71
2022-10-08T07:44:12.977Z,14.45
2022-10-08T07:46:47.863Z,14.13
2022-10-08T07:49:18.885Z,13.99
2022-10-08T07:51:48.266Z,13.77
2022-10-08T07:54:18.790Z,13.54
2022-10-08T07:56:47.271Z,13.40
2022-10-08T07:59:16.398Z,13.30
2022-10-08T08:01:45.701Z,13.20
2022-10-08T08:04:15.531Z,13.12
2022-10-08T08:06:48.409Z,13.02
2022-10-08T08:09:18.817Z,13.07
2022-10-08T08:11:49.319Z,13.15
2022-10-08T08:14:18.657Z,13.21
2022-10-08T08:16:47.517Z,13.23
2022-10-08T08:19:16.189Z,13.28
2022-10-08T08:21:44.672Z,13.31
2022-10-08T08:24:15.508Z,13.27
2022-10-08T08:26:44.758Z,13.26
2022-10-08T08:29:15.966Z,13.27
2022-10-08T08:31:48.092Z,13.30
2022-10-08T08:34:19.379Z,13.32
2022-10-08T08:36:51.485Z,13.37
2022-10-08T08:39:23.333Z,13.42
2022-10-08T08:42:05.065Z,13.49
2022-10-08T08:44:41.650Z,13.55
2022-10-08T08:47:25.510Z,13.61
2022-10-08T08:49:58.094Z,13.68
2022-10-08T08:52:30.517Z,13.80
2022-10-08T08:54:58.941Z,13.91
2022-10-08T08:57:38.829Z,14.05
2022-10-08T09:00:29.587Z,14.22
2022-10-08T09:03:12.024Z,14.39
2022-10-08T09:05:44.485Z,14.54
2022-10-08T09:08:35.296Z,14.66
2022-10-08T09:11:06.345Z,14.77
2022-10-08T09:13:37.789Z,14.88
2022-10-08T09:16:06.415Z,15.02
2022-10-08T09:18:34.718Z,15.14
2022-10-08T09:21:03.879Z,15.25
2022-10-08T09:23:32.691Z,15.37
2022-10-08T09:26:10.405Z,15.51
2022-10-08T09:28:52.892Z,15.66
2022-10-08T09:31:27.658Z,15.81
2022-10-08T09:34:01.183Z,15.91
2022-10-08T09:36:37.672Z,16.06
2022-10-08T09:39:16.529Z,16.21
2022-10-08T09:41:47.263Z,16.33
2022-10-08T09:44:23.418Z,16.43
2022-10-08T09:47:06.999Z,16.52
2022-10-08T09:49:39.941Z,16.62
2022-10-08T09:52:19.651Z,16.68
2022-10-08T09:54:53.511Z,16.77
2022-10-08T09:57:23.266Z,16.86
2022-10-08T10:00:00.288Z,16.98
2022-10-08T10:02:36.533Z,17.12
2022-10-08T10:05:08.250Z,17.23
2022-10-08T10:07:40.138Z,17.27
2022-10-08T10:10:20.546Z,17.35
2022-10-08T10:13:22.349Z,17.45
2022-10-08T10:16:12.846Z,17.47
2022-10-08T10:18:56.542Z,17.49
2022-10-08T10:22:01.823Z,17.52
2022-10-08T10:24:42.125Z,17.59
2022-10-08T10:27:17.885Z,17.65
2022-10-08T10:29:53.594Z,17.68
2022-10-08T10:32:32.047Z,17.69
2022-10-08T10:35:29.365Z,17.74
2022-10-08T10:38:08.123Z,17.80
2022-10-08T10:40:57.201Z,17.89
2022-10-08T10:43:33.517Z,17.98
2022-10-08T10:46:21.374Z,18.04
2022-10-08T10:48:51.163Z,18.07
2022-10-08T10:51:34.557Z,18.11
2022-10-08T10:54:24.185Z,18.14
2022-10-08T10:57:00.183Z,18.18
2022-10-08T10:59:45.505Z,18.25
2022-10-08T11:02:19.965Z,18.27
2022-10-08T11:05:05.417Z,18.32
2022-10-08T11:07:47.718Z,18.38
2022-10-08T11:10:32.686Z,18.41
2022-10-08T11:13:19.646Z,18.46
2022-10-08T11:16:10.164Z,18.51
2022-10-08T11:18:49.964Z,18.59
2022-10-08T11:21:30.582Z,18.62
2022-10-08T11:24:20.132Z,18.63
2022-10-08T11:26:56.218Z,18.68
2022-10-08T11:29:29.026Z,18.76
2022-10-08T11:31:58.301Z,18.79
2022-10-08T11:34:36.241Z,18.80
2022-10-08T11:37:16.694Z,18.86
2022-10-08T11:40:08.650Z,18.98
2022-10-08T11:42:55.799Z,19.07
2022-10-08T11:45:24.060Z,19.03
2022-10-08T11:47:54.877Z,19.06
2022-10-08T11:50:37.758Z,19.11
2022-10-08T11:53:19.672Z,19.12
2022-10-08T11:55:56.136Z,19.10
2022-10-08T11:58:35.434Z,19.07
2022-10-08T12:01:07.458Z,19.12
2022-10-08T12:03:37.739Z,19.17
2022-10-08T12:06:29.573Z,19.20
2022-10-08T12:09:01.233Z,19.23
2022-10-08T12:11:29.738Z,19.25
2022-10-08T12:14:17.601Z,19.25
2022-10-08T12:16:49.075Z,19.29
2022-10-08T12:19:33.500Z,19.30
2022-10-08T12:22:16.836Z,19.30
2022-10-08T12:24:49.970Z,19.30
2022-10-08T12:27:28.167Z,19.32
2022-10-08T12:29:58.085Z,19.34
2022-10-08T12:32:30.963Z,19.34
2022-10-08T12:35:02.213Z,19.36
2022-10-08T12:37:54.458Z,19.38
2022-10-08T12:41:00.249Z,19.43
2022-10-08T12:43:45.359Z,19.48
2022-10-08T12:46:31.190Z,19.48
2022-10-08T12:49:18.026Z,19.47
2022-10-08T12:52:01.440Z,19.51
2022-10-08T12:54:31.781Z,19.54
2022-10-08T12:57:08.324Z,19.55
2022-10-08T12:59:41.233Z,19.53
2022-10-08T13:02:37.413Z,19.53
2022-10-08T13:05:30.734Z,19.54
2022-10-08T13:07:59.675Z,19.53
2022-10-08T13:10:29.821Z,19.49
2022-10-08T13:13:42.235Z,19.47
2022-10-08T13:16:12.653Z,19.53
2022-10-08T13:18:50.599Z,19.57
2022-10-08T13:21:25.545Z,19.59
2022-10-08T13:23:53.970Z,19.61
2022-10-08T13:26:40.562Z,19.60
2022-10-08T13:29:23.925Z,19.59
2022-10-08T13:32:00.879Z,19.59
2022-10-08T13:34:41.155Z,19.58
2022-10-08T13:37:35.042Z,19.58
2022-10-08T13:40:12.474Z,19.55
2022-10-08T13:42:43.925Z,19.55
2022-10-08T13:45:21.408Z,19.58
2022-10-08T13:47:52.734Z,19.55
2022-10-08T13:50:22.919Z,19.52
2022-10-08T13:52:57.359Z,19.53
2022-10-08T13:55:31.882Z,19.57
2022-10-08T13:58:02.948Z,19.60
2022-10-08T14:00:34.683Z,19.61
2022-10-08T14:03:04.173Z,19.58
2022-10-08T14:05:41.322Z,19.53
2022-10-08T14:08:15.014Z,19.50
2022-10-08T14:10:44.352Z,19.46
2022-10-08T14:13:15.106Z,19.41
2022-10-08T14:15:43.631Z,19.37
2022-10-08T14:18:12.030Z,19.36
2022-10-08T14:20:40.252Z,19.35
2022-10-08T14:23:12.822Z,19.32
2022-10-08T14:25:41.811Z,19.29
2022-10-08T14:28:10.193Z,19.24
2022-10-08T14:30:38.579Z,19.19
2022-10-08T14:33:11.261Z,19.13
2022-10-08T14:35:39.961Z,19.08
2022-10-08T14:38:09.051Z,19.03
2022-10-08T14:40:37.999Z,18.95
2022-10-08T14:43:06.528Z,18.88
2022-10-08T14:45:35.343Z,18.83
2022-10-08T14:48:04.134Z,18.78
2022-10-08T14:50:32.593Z,18.73
2022-10-08T14:53:01.215Z,18.68
2022-10-08T14:55:29.899Z,18.64
2022-10-08T14:57:58.672Z,18.57
2022-10-08T15:00:27.201Z,18.51
2022-10-08T15:02:55.560Z,18.46
2022-10-08T15:05:24.522Z,18.39
2022-10-08T15:07:53.677Z,18.32
2022-10-08T15:10:22.301Z,18.25
2022-10-08T15:12:51.251Z,18.18
2022-10-08T15:15:20.097Z,18.11
2022-10-08T15:17:48.903Z,18.05
2022-10-08T15:20:17.589Z,17.97
2022-10-08T15:22:46.457Z,17.89
2022-10-08T15:25:15.123Z,17.83
2022-10-08T15:27:43.902Z,17.77
2022-10-08T15:30:13.120Z,17.71
2022-10-08T15:32:42.720Z,17.64
2022-10-08T15:35:12.938Z,17.57
2022-10-08T15:37:42.347Z,17.49
2022-10-08T15:40:10.906Z,17.40
2022-10-08T15:42:38.899Z,17.28
2022-10-08T15:45:07.490Z,17.15
2022-10-08T15:47:36.118Z,17.03
2022-10-08T15:50:05.548Z,16.92
2022-10-08T15:52:34.667Z,16.80
2022-10-08T15:55:03.355Z,16.67
2022-10-08T15:57:32.997Z,16.55
2022-10-08T16:00:01.502Z,16.40
2022-10-08T16:02:40.576Z,16.24
2022-10-08T16:05:09.135Z,16.10
2022-10-08T16:07:37.306Z,15.97
2022-10-08T16:10:06.417Z,15.85
2022-10-08T16:12:35.655Z,15.73
2022-10-08T16:15:04.038Z,15.60
2022-10-08T16:17:32.726Z,15.48
2022-10-08T16:20:01.062Z,15.37
2022-10-08T16:22:29.269Z,15.26
2022-10-08T16:24:57.481Z,15.17
2022-10-08T16:27:25.687Z,15.08
2022-10-08T16:29:54.234Z,15.00
2022-10-08T16:32:22.975Z,14.95
2022-10-08T16:34:53.493Z,14.90
2022-10-08T16:37:22.109Z,14.85
2022-10-08T16:39:50.516Z,14.84
2022-10-08T16:42:18.601Z,14.84
2022-10-08T16:44:47.336Z,14.78
2022-10-08T16:47:15.896Z,14.75
2022-10-08T16:49:44.397Z,14.71
2022-10-08T16:52:12.464Z,14.68
2022-10-08T16:54:40.588Z,14.63
2022-10-08T16:57:08.784Z,14.58
2022-10-08T16:59:36.727Z,14.54
2022-10-08T17:02:04.860Z,14.49
2022-10-08T17:04:39.161Z,14.42
2022-10-08T17:07:07.826Z,14.34
2022-10-08T17:09:36.475Z,14.27
2022-10-08T17:12:04.861Z,14.21
2022-10-08T17:14:33.442Z,14.15
2022-10-08T17:17:01.767Z,14.08
2022-10-08T17:19:30.275Z,14.02
2022-10-08T17:21:58.492Z,13.98
2022-10-08T17:24:26.492Z,13.95
2022-10-08T17:26:54.877Z,13.94
2022-10-08T17:29:23.114Z,13.93
2022-10-08T17:31:51.900Z,13.92
2022-10-08T17:34:20.605Z,13.93
2022-10-08T17:36:48.717Z,13.93
2022-10-08T17:39:17.038Z,13.94
2022-10-08T17:41:45.207Z,13.94
2022-10-08T17:44:13.762Z,13.92
2022-10-08T17:46:47.496Z,13.90
2022-10-08T17:49:18.276Z,13.88
2022-10-08T17:51:48.130Z,13.84
2022-10-08T17:54:19.256Z,13.80
2022-10-08T17:56:47.942Z,13.75
2022-10-08T17:59:18.688Z,13.69
2022-10-08T18:01:47.291Z,13.63
2022-10-08T18:04:18.774Z,13.57
2022-10-08T18:06:48.181Z,13.50
2022-10-08T18:09:21.157Z,13.43
2022-10-08T18:11:54.189Z,13.39
2022-10-08T18:14:23.036Z,13.35
2022-10-08T18:16:51.655Z,13.31
2022-10-08T18:19:20.519Z,13.31
2022-10-08T18:21:50.448Z,13.30
2022-10-08T18:24:19.070Z,13.30
2022-10-08T18:26:47.148Z,13.30
2022-10-08T18:29:15.690Z,13.30
2022-10-08T18:31:46.182Z,13.29
2022-10-08T18:34:16.497Z,13.28
2022-10-08T18:36:46.362Z,13.26
2022-10-08T18:39:17.759Z,13.22
2022-10-08T18:41:48.043Z,13.19
2022-10-08T18:44:19.858Z,13.16
2022-10-08T18:46:50.131Z,13.10
2022-10-08T18:49:20.713Z,13.05
2022-10-08T18:51:50.108Z,12.99
2022-10-08T18:54:18.312Z,12.95
2022-10-08T18:56:46.686Z,12.93
2022-10-08T18:59:17.608Z,12.91
2022-10-08T19:01:48.442Z,12.90
2022-10-08T19:04:22.141Z,12.89
2022-10-08T19:06:53.820Z,12.90
2022-10-08T19:09:22.440Z,12.90
2022-10-08T19:11:53.286Z,12.91
2022-10-08T19:14:23.551Z,12.90
2022-10-08T19:16:52.123Z,12.89
2022-10-08T19:19:25.274Z,12.86
2022-10-08T19:21:55.091Z,12.83
2022-10-08T19:24:25.565Z,12.79
2022-10-08T19:26:55.171Z,12.75
2022-10-08T19:29:26.994Z,12.72
2022-10-08T19:31:56.077Z,12.68
2022-10-08T19:34:26.863Z,12.61
2022-10-08T19:36:55.160Z,12.59
2022-10-08T19:39:26.478Z,12.58
2022-10-08T19:41:55.243Z,12.56
2022-10-08T19:44:23.372Z,12.55
2022-10-08T19:46:52.284Z,12.54
2022-10-08T19:49:22.050Z,12.53
2022-10-08T19:51:50.095Z,12.52
2022-10-08T19:54:18.440Z,12.53
2022-10-08T19:56:47.174Z,12.52
2022-10-08T19:59:16.022Z,12.53
2022-10-08T20:01:45.432Z,12.52
2022-10-08T20:04:14.260Z,12.54
2022-10-08T20:06:43.334Z,12.54
2022-10-08T20:09:13.136Z,12.55
2022-10-08T20:11:43.751Z,12.53
2022-10-08T20:14:13.605Z,12.49
2022-10-08T20:16:43.752Z,12.44
2022-10-08T20:19:17.932Z,12.37
2022-10-08T20:21:47.387Z,12.31
2022-10-08T20:24:15.840Z,12.25
2022-10-08T20:26:45.105Z,12.18
2022-10-08T20:29:16.406Z,12.14
2022-10-08T20:31:49.530Z,12.10
2022-10-08T20:34:20.176Z,12.05
2022-10-08T20:36:49.147Z,12.02
2022-10-08T20:39:19.504Z,11.98
2022-10-08T20:41:48.027Z,11.94
2022-10-08T20:44:16.192Z,11.92
2022-10-08T20:46:44.973Z,11.90
2022-10-08T20:49:13.839Z,11.88
2022-10-08T20:51:43.347Z,11.87
2022-10-08T20:54:17.891Z,11.84
2022-10-08T20:56:45.934Z,11.81
2022-10-08T20:59:16.706Z,11.78
2022-10-08T21:01:46.520Z,11.74
2022-10-08T21:04:14.944Z,11.70
2022-10-08T21:06:45.375Z,11.65
2022-10-08T21:09:14.642Z,11.58
2022-10-08T21:11:43.028Z,11.53
2022-10-08T21:14:13.335Z,11.50
2022-10-08T21:16:41.542Z,11.47
2022-10-08T21:19:25.943Z,11.45
2022-10-08T21:21:53.987Z,11.44
2022-10-08T21:24:22.135Z,11.42
2022-10-08T21:26:50.211Z,11.40
2022-10-08T21:29:18.396Z,11.41
2022-10-08T21:31:46.479Z,11.38
2022-10-08T21:34:14.617Z,11.35
2022-10-08T21:36:45.102Z,11.33
2022-10-08T21:39:17.418Z,11.32
2022-10-08T21:41:47.006Z,11.29
2022-10-08T21:44:15.457Z,11.25
2022-10-08T21:46:44.448Z,11.21
2022-10-08T21:49:20.771Z,11.17
2022-10-08T21:51:49.218Z,11.11
2022-10-08T21:54:17.311Z,11.05
2022-10-08T21:56:45.335Z,11.01
2022-10-08T21:59:15.505Z,10.97
2022-10-08T22:01:45.330Z,10.94
2022-10-08T22:04:19.375Z,10.92
2022-10-08T22:06:50.554Z,10.90
2022-10-08T22:09:26.767Z,10.89
2022-10-08T22:11:56.821Z,10.87
2022-10-08T22:14:25.766Z,10.85
2022-10-08T22:16:54.717Z,10.83
2022-10-08T22:19:23.062Z,10.80
2022-10-08T22:21:51.640Z,10.78
2022-10-08T22:24:19.886Z,10.76
2022-10-08T22:26:48.476Z,10.73
2022-10-08T22:29:16.531Z,10.69
2022-10-08T22:31:44.952Z,10.66
2022-10-08T22:34:13.138Z,10.61
2022-10-08T22:36:43.571Z,10.54
2022-10-08T22:39:11.921Z,10.48
2022-10-08T22:41:40.052Z,10.42
2022-10-08T22:44:08.155Z,10.36
2022-10-08T22:46:38.932Z,10.32
2022-10-08T22:49:11.088Z,10.28
2022-10-08T22:51:39.784Z,10.25
2022-10-08T22:54:08.361Z,10.24
2022-10-08T22:56:36.653Z,10.22
2022-10-08T22:59:04.606Z,10.22
2022-10-08T23:01:32.711Z,10.21
2022-10-08T23:04:00.715Z,10.22
2022-10-08T23:06:31.988Z,10.21
2022-10-08T23:09:03.855Z,10.20
2022-10-08T23:11:33.247Z,10.18
2022-10-08T23:14:02.056Z,10.17
2022-10-08T23:16:32.626Z,10.16
2022-10-08T23:19:10.344Z,10.14
2022-10-08T23:21:38.865Z,10.11
2022-10-08T23:24:07.040Z,10.08
2022-10-08T23:26:36.405Z,10.05
2022-10-08T23:29:05.131Z,10.01
2022-10-08T23:31:35.713Z,9.96
2022-10-08T23:34:05.699Z,9.90
2022-10-08T23:36:36.680Z,9.84
2022-10-08T23:39:05.975Z,9.80
2022-10-08T23:41:36.047Z,9.75
2022-10-08T23:44:04.001Z,9.74
2022-10-08T23:46:31.861Z,9.72
2022-10-08T23:49:00.246Z,9.71
2022-10-08T23:51:31.872Z,9.71
2022-10-08T23:54:01.480Z,9.72
2022-10-08T23:56:29.584Z,9.70
2022-10-08T23:58:58.566Z,9.73
